Time;durP1;ratioP1;P1;durP2;ratioP2;P2;SDS_P1;SDS_P2;PMS_P1;PMS_P2;Temp;Humidity;BMP_temperature;BMP_pressure;BME280_temperature;BME280_humidity;BME280_pressure;Samples;Min_cycle;Max_cycle;Signal;HPM_P1;HPM_P2
2021/08/07 00:01:26;;;;;;;7.40;2.88;;;17.20;99.70;;;;;;5030801;28;20030;-75
2021/08/07 00:03:53;;;;;;;7.28;2.70;;;17.20;99.70;;;;;;5030712;28;20014;-76
2021/08/07 00:06:19;;;;;;;7.60;2.90;;;17.20;99.80;;;;;;5012551;28;20057;-74
2021/08/07 00:08:45;;;;;;;6.50;2.97;;;17.20;99.80;;;;;;5029332;28;20042;-76
2021/08/07 00:11:11;;;;;;;6.43;3.20;;;17.20;99.80;;;;;;5030728;28;20033;-76
2021/08/07 00:13:37;;;;;;;6.80;2.92;;;17.20;99.80;;;;;;5030699;28;20468;-75
2021/08/07 00:16:03;;;;;;;6.40;3.50;;;17.20;99.80;;;;;;5029298;28;20503;-77
2021/08/07 00:18:29;;;;;;;;;;;17.30;99.90;;;;;;5031004;28;20128;-75
2021/08/07 00:20:55;;;;;;;7.22;3.35;;;17.30;99.80;;;;;;5029390;28;20400;-76
2021/08/07 00:23:21;;;;;;;8.88;4.18;;;17.30;99.70;;;;;;5030591;28;20550;-76
2021/08/07 00:25:46;;;;;;;7.68;3.92;;;17.30;99.80;;;;;;5030551;28;20061;-75
2021/08/07 00:28:12;;;;;;;7.22;4.05;;;17.30;99.80;;;;;;5030544;28;20493;-76
2021/08/07 00:30:38;;;;;;;10.15;4.20;;;17.30;99.90;;;;;;5012793;28;20541;-75
2021/08/07 00:33:03;;;;;;;9.27;4.03;;;17.40;99.90;;;;;;5033768;28;20168;-77
2021/08/07 00:35:29;;;;;;;7.28;4.47;;;17.40;99.90;;;;;;5033796;28;20056;-76
2021/08/07 00:37:55;;;;;;;9.98;4.32;;;17.40;99.90;;;;;;5033668;28;20025;-75
2021/08/07 00:40:21;;;;;;;7.43;4.68;;;17.40;99.90;;;;;;5033973;28;20108;-75
2021/08/07 00:42:47;;;;;;;9.70;4.43;;;17.40;99.90;;;;;;5033888;28;20500;-75
2021/08/07 00:45:13;;;;;;;8.80;5.00;;;17.40;99.90;;;;;;5033825;28;20033;-76
2021/08/07 00:47:39;;;;;;;9.40;4.82;;;17.50;99.90;;;;;;5033650;28;20036;-76
2021/08/07 00:50:05;;;;;;;;;;;17.40;99.90;;;;;;5032979;28;20421;-76
2021/08/07 00:52:31;;;;;;;9.02;5.22;;;17.50;99.90;;;;;;5033669;28;19963;-77
2021/08/07 00:54:59;;;;;;;9.38;5.00;;;17.50;99.90;;;;;;5032378;28;20049;-76
2021/08/07 00:57:27;;;;;;;7.43;4.38;;;17.50;99.90;;;;;;5033399;28;20040;-75
2021/08/07 00:59:53;;;;;;;9.55;4.40;;;17.60;99.90;;;;;;5033526;28;20021;-76
2021/08/07 01:02:20;;;;;;;8.07;4.35;;;17.60;99.90;;;;;;5033439;28;20558;-75
2021/08/07 01:05:08;;;;;;;8.52;3.90;;;17.60;99.90;;;;;;5033416;28;20060;-76
2021/08/07 01:07:55;;;;;;;7.65;4.03;;;17.60;99.90;;;;;;5033119;28;20041;-75
2021/08/07 01:10:32;;;;;;;6.80;4.57;;;17.60;99.90;;;;;;5033395;28;20033;-76
2021/08/07 01:13:09;;;;;;;7.22;4.28;;;17.60;99.90;;;;;;5033364;28;20025;-76
2021/08/07 01:15:40;;;;;;;9.80;4.20;;;17.60;99.90;;;;;;5033166;28;20091;-76
2021/08/07 01:18:10;;;;;;;7.88;4.07;;;17.60;99.90;;;;;;5033207;28;20530;-75
2021/08/07 01:20:41;;;;;;;8.95;5.22;;;17.60;99.90;;;;;;5031853;28;20030;-75
2021/08/07 01:23:22;;;;;;;9.05;4.45;;;17.70;99.90;;;;;;5033096;28;20017;-77
2021/08/07 01:25:53;;;;;;;10.52;4.18;;;17.70;99.90;;;;;;5033045;28;20053;-75
2021/08/07 01:28:21;;;;;;;8.45;4.18;;;17.70;99.90;;;;;;5031871;28;20026;-76
2021/08/07 01:30:53;;;;;;;8.85;4.50;;;17.70;99.90;;;;;;5031646;28;20044;-77
2021/08/07 01:33:20;;;;;;;9.25;4.78;;;17.70;99.90;;;;;;5032935;28;20017;-76
2021/08/07 01:35:48;;;;;;;8.27;4.18;;;17.70;99.90;;;;;;5031360;28;20438;-75
2021/08/07 01:38:15;;;;;;;8.68;4.53;;;17.70;99.90;;;;;;5031589;28;20033;-75
2021/08/07 01:40:40;;;;;;;;;;;17.60;99.90;;;;;;5031919;28;20484;-75
2021/08/07 01:43:06;;;;;;;11.27;4.20;;;17.60;99.90;;;;;;5032509;28;19944;-76
2021/08/07 01:45:32;;;;;;;8.25;3.90;;;17.60;99.90;;;;;;5031234;28;20029;-76
2021/08/07 01:48:13;;;;;;;9.32;3.97;;;17.60;99.90;;;;;;5032693;28;20035;-74
2021/08/07 01:50:46;;;;;;;11.32;4.57;;;17.50;99.90;;;;;;5031289;28;20074;-75
2021/08/07 01:53:17;;;;;;;10.35;5.47;;;17.50;99.90;;;;;;5032604;28;20037;-76
2021/08/07 01:56:09;;;;;;;10.50;5.20;;;17.50;99.90;;;;;;5031071;28;20129;-75
2021/08/07 01:58:48;;;;;;;7.78;3.80;;;17.50;99.90;;;;;;5032398;28;20048;-76
2021/08/07 02:01:21;;;;;;;8.80;4.38;;;17.50;99.90;;;;;;5032332;28;20026;-77
2021/08/07 02:03:48;;;;;;;8.38;4.53;;;17.50;99.90;;;;;;5032435;28;20031;-76
2021/08/07 02:06:14;;;;;;;10.43;4.20;;;17.50;99.90;;;;;;5031985;28;20044;-76
2021/08/07 02:08:41;;;;;;;8.90;4.50;;;17.50;99.90;;;;;;5032275;28;20025;-75
2021/08/07 02:11:07;;;;;;;8.10;4.43;;;17.50;99.90;;;;;;5032196;28;20029;-75
2021/08/07 02:13:34;;;;;;;10.18;4.50;;;17.50;99.90;;;;;;5032190;28;20040;-77
2021/08/07 02:16:02;;;;;;;10.30;4.68;;;17.50;99.90;;;;;;5031967;28;20179;-76
2021/08/07 02:18:28;;;;;;;10.43;5.13;;;17.50;99.90;;;;;;5032044;28;20032;-75
2021/08/07 02:20:56;;;;;;;8.65;4.55;;;17.50;99.90;;;;;;5014523;28;20576;-75
2021/08/07 02:23:22;;;;;;;11.57;4.97;;;17.50;99.90;;;;;;5031947;28;20472;-75
2021/08/07 02:25:52;;;;;;;;;;;17.50;99.90;;;;;;5032325;28;20396;-76
2021/08/07 02:28:20;;;;;;;7.82;4.60;;;17.50;99.90;;;;;;5030508;28;19901;-76
2021/08/07 02:30:46;;;;;;;10.73;5.00;;;17.40;99.90;;;;;;5031860;28;20397;-76
2021/08/07 02:33:14;;;;;;;11.38;5.45;;;17.40;99.90;;;;;;5031872;28;20033;-75
2021/08/07 02:35:41;;;;;;;11.77;5.18;;;17.40;99.90;;;;;;5031682;28;20025;-76
2021/08/07 02:38:07;;;;;;;10.85;5.47;;;17.40;99.90;;;;;;5031651;28;20389;-77
2021/08/07 02:40:32;;;;;;;;;;;17.40;99.90;;;;;;5032159;28;20025;-75
2021/08/07 02:42:59;;;;;;;10.68;5.18;;;17.40;99.90;;;;;;5030411;28;19909;-76
2021/08/07 02:45:26;;;;;;;13.20;5.00;;;17.40;99.90;;;;;;5031642;28;20496;-75
2021/08/07 02:47:53;;;;;;;13.48;5.68;;;17.40;99.90;;;;;;5031546;28;20056;-76
2021/08/07 02:50:19;;;;;;;13.70;6.53;;;17.40;99.90;;;;;;5031579;28;20384;-76
2021/08/07 02:52:46;;;;;;;12.63;5.93;;;17.40;99.90;;;;;;5030285;28;20052;-76
2021/08/07 02:55:12;;;;;;;12.43;5.60;;;17.40;99.90;;;;;;5030821;28;20547;-77
2021/08/07 02:57:37;;;;;;;;;;;17.40;99.90;;;;;;5031748;28;20476;-76
2021/08/07 03:00:04;;;;;;;11.00;5.40;;;17.40;99.90;;;;;;5031470;28;19916;-76
2021/08/07 03:02:30;;;;;;;11.98;5.40;;;17.40;99.90;;;;;;5031385;28;20030;-76
2021/08/07 03:04:56;;;;;;;12.80;5.70;;;17.40;99.90;;;;;;5031397;28;20237;-75
2021/08/07 03:07:22;;;;;;;12.65;6.35;;;17.40;99.90;;;;;;5013581;28;20049;-77
2021/08/07 03:09:48;;;;;;;;;;;17.50;99.90;;;;;;5031689;28;20673;-76
2021/08/07 03:12:15;;;;;;;14.68;7.00;;;17.50;99.90;;;;;;5031378;28;20287;-75
2021/08/07 03:14:42;;;;;;;18.80;7.00;;;17.50;99.90;;;;;;5031187;28;20496;-76
2021/08/07 03:17:07;;;;;;;18.50;7.10;;;17.50;99.90;;;;;;5031152;28;20067;-76
2021/08/07 03:19:33;;;;;;;21.45;7.78;;;17.50;99.90;;;;;;5029832;28;20353;-76
2021/08/07 03:21:59;;;;;;;14.98;7.38;;;17.50;99.90;;;;;;5031010;28;20253;-75
2021/08/07 03:24:25;;;;;;;20.10;7.93;;;17.50;99.90;;;;;;5013399;28;20384;-76
2021/08/07 03:26:51;;;;;;;22.95;8.35;;;17.50;99.90;;;;;;5031269;28;20380;-76
2021/08/07 03:29:17;;;;;;;16.00;7.72;;;17.50;99.90;;;;;;5029878;28;20029;-76
2021/08/07 03:31:42;;;;;;;19.77;8.50;;;17.50;99.90;;;;;;5029709;28;20488;-75
2021/08/07 03:34:08;;;;;;;14.48;7.88;;;17.50;99.90;;;;;;4996941;28;20029;-76
2021/08/07 03:36:34;;;;;;;18.58;8.32;;;17.50;99.90;;;;;;5029557;28;20091;-76
2021/08/07 03:38:59;;;;;;;19.10;8.60;;;17.50;99.90;;;;;;5031026;28;20036;-77
2021/08/07 03:41:25;;;;;;;22.73;9.07;;;17.50;99.90;;;;;;5029629;28;20104;-75
2021/08/07 03:43:51;;;;;;;21.90;8.45;;;17.40;99.90;;;;;;5030969;28;20040;-76
2021/08/07 03:46:17;;;;;;;28.20;9.50;;;17.50;99.90;;;;;;5030935;28;20072;-75
2021/08/07 03:48:43;;;;;;;19.25;8.73;;;17.40;99.90;;;;;;5031295;28;20318;-75
2021/08/07 03:51:08;;;;;;;23.45;9.05;;;17.40;99.90;;;;;;5030869;28;20112;-75
2021/08/07 03:53:34;;;;;;;22.08;9.15;;;17.40;99.90;;;;;;5030860;28;20080;-75
2021/08/07 03:56:00;;;;;;;22.65;8.95;;;17.40;99.90;;;;;;5029276;28;20447;-75
2021/08/07 03:58:25;;;;;;;18.48;9.25;;;17.40;99.90;;;;;;5030825;28;20025;-77
2021/08/07 04:00:51;;;;;;;21.52;10.00;;;17.40;99.90;;;;;;5029498;28;20129;-74
2021/08/07 04:03:17;;;;;;;21.95;9.65;;;17.30;99.90;;;;;;5029524;28;20037;-74
2021/08/07 04:05:42;;;;;;;18.70;10.27;;;17.30;99.90;;;;;;5030749;28;20034;-76
2021/08/07 04:08:09;;;;;;;18.75;10.43;;;17.30;99.90;;;;;;5034444;28;20124;-75
2021/08/07 04:10:35;;;;;;;22.58;9.80;;;17.30;99.90;;;;;;5033184;28;20041;-74
2021/08/07 04:13:00;;;;;;;20.35;9.93;;;17.20;99.90;;;;;;5034542;28;20026;-75
2021/08/07 04:15:26;;;;;;;19.90;9.93;;;17.20;99.90;;;;;;5034289;28;20049;-75
2021/08/07 04:17:52;;;;;;;22.75;10.20;;;17.20;99.90;;;;;;5032951;28;20083;-75
2021/08/07 04:20:19;;;;;;;16.73;8.98;;;17.20;99.90;;;;;;5034279;28;20034;-74
2021/08/07 04:22:44;;;;;;;19.05;9.63;;;17.10;99.90;;;;;;5034224;28;20025;-75
2021/08/07 04:25:11;;;;;;;20.50;9.48;;;17.10;99.90;;;;;;5032889;28;20542;-76
2021/08/07 04:27:37;;;;;;;16.60;9.55;;;17.10;99.90;;;;;;5034114;28;20041;-76
2021/08/07 04:30:05;;;;;;;19.33;9.73;;;17.00;99.90;;;;;;5034189;28;20551;-75
2021/08/07 04:32:31;;;;;;;16.70;9.32;;;17.00;99.90;;;;;;5032991;28;20040;-76
2021/08/07 04:34:56;;;;;;;18.67;9.98;;;17.00;99.90;;;;;;5034050;28;20029;-77
2021/08/07 04:37:22;;;;;;;18.25;9.50;;;17.00;99.90;;;;;;5032605;28;20108;-76
2021/08/07 04:39:48;;;;;;;16.85;9.32;;;16.90;99.90;;;;;;5032540;28;20419;-74
2021/08/07 04:42:14;;;;;;;19.75;10.50;;;17.00;99.90;;;;;;5016144;28;20413;-75
2021/08/07 04:44:40;;;;;;;20.40;10.25;;;17.00;99.90;;;;;;5033782;28;20025;-75
2021/08/07 04:47:06;;;;;;;23.48;9.85;;;17.00;99.90;;;;;;5033807;28;20034;-75
2021/08/07 04:49:33;;;;;;;24.75;10.88;;;16.90;99.90;;;;;;5016005;28;20545;-76
2021/08/07 04:51:59;;;;;;;23.30;10.68;;;16.90;99.90;;;;;;5033718;28;20083;-74
2021/08/07 04:54:25;;;;;;;25.30;12.30;;;16.90;99.90;;;;;;5032285;28;20040;-75
2021/08/07 04:56:51;;;;;;;23.48;10.35;;;17.00;99.90;;;;;;5015883;28;20034;-76
2021/08/07 04:59:16;;;;;;;21.60;11.63;;;16.90;99.90;;;;;;5033620;28;20026;-75
2021/08/07 05:01:42;;;;;;;24.20;11.00;;;16.90;99.90;;;;;;5033480;28;20076;-76
2021/08/07 05:04:08;;;;;;;24.15;9.63;;;16.90;99.90;;;;;;5033432;28;20037;-75
2021/08/07 05:06:33;;;;;;;24.60;10.43;;;16.90;99.90;;;;;;5015421;28;20381;-76
2021/08/07 05:08:59;;;;;;;20.90;10.30;;;16.90;99.90;;;;;;5032216;28;20053;-76
2021/08/07 05:11:25;;;;;;;22.65;10.82;;;16.90;99.90;;;;;;5015682;28;20049;-76
2021/08/07 05:13:50;;;;;;;19.27;9.45;;;16.90;99.90;;;;;;5032040;28;20041;-75
2021/08/07 05:16:16;;;;;;;22.88;10.27;;;16.90;99.90;;;;;;5031857;28;20064;-76
2021/08/07 05:18:42;;;;;;;17.08;9.02;;;16.90;99.90;;;;;;5031216;28;20037;-76
2021/08/07 05:21:07;;;;;;;20.38;9.13;;;16.90;99.90;;;;;;5033211;28;20026;-76
2021/08/07 05:23:33;;;;;;;23.55;9.43;;;16.90;99.90;;;;;;5033173;28;20032;-75
2021/08/07 05:25:59;;;;;;;17.67;9.00;;;17.00;99.90;;;;;;5032858;28;20029;-75
2021/08/07 05:28:24;;;;;;;18.02;8.65;;;17.00;99.90;;;;;;5032873;28;20116;-74
2021/08/07 05:30:50;;;;;;;17.65;9.07;;;17.00;99.90;;;;;;5031650;28;20034;-75
2021/08/07 05:33:16;;;;;;;18.90;8.80;;;17.00;99.90;;;;;;5032743;28;20029;-75
2021/08/07 05:35:42;;;;;;;17.45;8.48;;;17.00;99.90;;;;;;5032635;28;20033;-75
2021/08/07 05:38:08;;;;;;;18.75;9.52;;;17.00;99.90;;;;;;5032463;28;20025;-75
2021/08/07 05:40:34;;;;;;;15.02;8.35;;;17.00;99.90;;;;;;5032807;28;20083;-74
2021/08/07 05:43:00;;;;;;;16.95;8.18;;;17.00;99.90;;;;;;5032689;28;20427;-75
2021/08/07 05:45:25;;;;;;;16.50;8.63;;;17.00;99.90;;;;;;5031367;28;20029;-74
2021/08/07 05:47:51;;;;;;;21.17;8.90;;;17.00;99.90;;;;;;5032538;28;20033;-75
2021/08/07 05:50:17;;;;;;;19.60;8.73;;;17.00;99.90;;;;;;5032929;28;20496;-74
2021/08/07 05:52:43;;;;;;;20.15;9.40;;;17.00;99.90;;;;;;5031256;28;20072;-74
2021/08/07 05:55:09;;;;;;;20.65;8.90;;;17.00;99.90;;;;;;5014773;28;20030;-74
2021/08/07 05:57:34;;;;;;;;;;;17.00;99.90;;;;;;5031314;28;20140;-74
2021/08/07 06:00:01;;;;;;;16.08;8.38;;;17.10;99.90;;;;;;5032403;28;20406;-75
2021/08/07 06:02:32;;;;;;;15.88;8.40;;;17.10;99.90;;;;;;5030936;28;20025;-75
2021/08/07 06:04:58;;;;;;;17.45;8.60;;;17.10;99.90;;;;;;5032273;28;20034;-75
2021/08/07 06:07:24;;;;;;;;;;;17.10;99.90;;;;;;5031077;28;20085;-75
2021/08/07 06:09:49;;;;;;;22.13;9.23;;;17.10;99.90;;;;;;5031915;28;19939;-75
2021/08/07 06:12:15;;;;;;;17.33;7.93;;;17.20;99.90;;;;;;5032142;28;20037;-76
2021/08/07 06:14:41;;;;;;;23.95;8.95;;;17.20;99.90;;;;;;5032148;28;20433;-75
2021/08/07 06:17:07;;;;;;;20.58;7.90;;;17.20;99.90;;;;;;5031723;28;20048;-75
2021/08/07 06:19:34;;;;;;;21.73;7.85;;;17.20;99.90;;;;;;5032061;28;20241;-74
2021/08/07 06:21:59;;;;;;;24.73;8.95;;;17.20;99.90;;;;;;5031924;28;20598;-76
2021/08/07 06:24:25;;;;;;;20.10;8.63;;;17.20;99.90;;;;;;5031946;28;20108;-75
2021/08/07 06:26:51;;;;;;;18.23;8.85;;;17.20;99.90;;;;;;5031823;28;20052;-75
2021/08/07 06:29:16;;;;;;;18.35;8.40;;;17.20;99.90;;;;;;5030887;28;20030;-75
2021/08/07 06:31:42;;;;;;;20.33;8.05;;;17.20;99.90;;;;;;5031693;28;20037;-76
2021/08/07 06:34:08;;;;;;;15.52;7.90;;;17.20;99.90;;;;;;5031802;28;20435;-75
2021/08/07 06:36:33;;;;;;;19.13;7.93;;;17.20;99.90;;;;;;5030218;28;20112;-75
2021/08/07 06:38:59;;;;;;;18.70;7.90;;;17.20;99.90;;;;;;5030144;28;20092;-75
2021/08/07 06:41:25;;;;;;;17.52;6.93;;;17.20;99.90;;;;;;5013791;28;20365;-76
2021/08/07 06:43:51;;;;;;;12.88;7.07;;;17.20;99.90;;;;;;5031533;28;20083;-76
2021/08/07 06:46:16;;;;;;;18.15;7.18;;;17.20;99.90;;;;;;5030260;28;20104;-76
2021/08/07 06:48:42;;;;;;;20.02;8.07;;;17.20;99.90;;;;;;5031472;28;20033;-75
2021/08/07 06:51:08;;;;;;;15.82;6.40;;;17.20;99.90;;;;;;5031450;28;20053;-75
2021/08/07 06:53:34;;;;;;;13.43;6.80;;;17.30;99.90;;;;;;5030082;28;20092;-75
2021/08/07 06:55:59;;;;;;;14.68;6.60;;;17.20;99.90;;;;;;5013410;28;20026;-75
2021/08/07 06:58:25;;;;;;;13.30;6.68;;;17.30;99.90;;;;;;5031530;28;20036;-75
2021/08/07 07:00:51;;;;;;;15.63;6.30;;;17.30;99.90;;;;;;5029950;28;20053;-76
2021/08/07 07:03:17;;;;;;;15.68;7.70;;;17.40;99.90;;;;;;5031333;28;20105;-75
2021/08/07 07:05:43;;;;;;;17.15;7.05;;;17.40;99.90;;;;;;5031256;28;20026;-75
2021/08/07 07:08:08;;;;;;;12.73;5.82;;;17.40;99.90;;;;;;5030986;28;20049;-75
2021/08/07 07:10:34;;;;;;;16.80;7.25;;;17.50;99.90;;;;;;5013205;28;20041;-77
2021/08/07 07:13:00;;;;;;;;;;;17.50;99.90;;;;;;5031537;28;20053;-75
2021/08/07 07:15:27;;;;;;;11.18;5.35;;;17.60;99.90;;;;;;5031026;28;20316;-76
2021/08/07 07:17:52;;;;;;;14.18;6.00;;;17.70;99.90;;;;;;5029688;28;20028;-75
2021/08/07 07:20:20;;;;;;;11.70;5.85;;;17.70;99.90;;;;;;5029820;28;20029;-75
2021/08/07 07:22:46;;;;;;;14.70;5.07;;;17.80;99.90;;;;;;5030996;28;20025;-75
2021/08/07 07:25:13;;;;;;;;;;;17.80;99.80;;;;;;5030022;28;20117;-75
2021/08/07 07:27:39;;;;;;;16.02;6.28;;;17.80;99.80;;;;;;5030817;28;20402;-74
2021/08/07 07:30:05;;;;;;;;;;;17.80;99.80;;;;;;5031882;28;20048;-75
2021/08/07 07:32:30;;;;;;;12.52;5.57;;;17.80;99.80;;;;;;5030772;28;20344;-74
2021/08/07 07:34:56;;;;;;;11.00;5.72;;;17.80;99.70;;;;;;5030746;28;20040;-75
2021/08/07 07:37:22;;;;;;;9.20;5.07;;;17.90;99.80;;;;;;5030685;28;20030;-74
2021/08/07 07:39:48;;;;;;;18.02;6.00;;;18.20;99.80;;;;;;5029299;28;20083;-75
2021/08/07 07:42:14;;;;;;;10.55;4.32;;;18.40;99.60;;;;;;5034537;28;20175;-75
2021/08/07 07:44:39;;;;;;;10.02;4.35;;;18.90;99.90;;;;;;5034569;28;20041;-75
2021/08/07 07:47:05;;;;;;;;;;;19.50;99.10;;;;;;5035149;28;20034;-74
2021/08/07 07:49:31;;;;;;;11.70;4.35;;;19.80;98.00;;;;;;5033084;28;19909;-74
2021/08/07 07:51:57;;;;;;;8.55;3.90;;;19.80;97.50;;;;;;5033122;28;20168;-73
2021/08/07 07:54:22;;;;;;;8.73;3.60;;;19.70;97.20;;;;;;5034399;28;20037;-73
2021/08/07 07:56:48;;;;;;;;;;;19.50;97.10;;;;;;5034656;28;20029;-75
2021/08/07 07:59:14;;;;;;;6.43;3.28;;;19.30;97.30;;;;;;5032924;28;19912;-75
2021/08/07 08:01:39;;;;;;;;;;;19.30;97.60;;;;;;5034683;28;20120;-75
2021/08/07 08:04:05;;;;;;;9.85;3.50;;;19.40;97.60;;;;;;5034195;28;20371;-76
2021/08/07 08:06:31;;;;;;;11.10;3.75;;;19.40;97.30;;;;;;5032458;28;20033;-77
2021/08/07 08:08:56;;;;;;;;;;;19.30;97.10;;;;;;5033257;28;20037;-75
2021/08/07 08:11:22;;;;;;;10.02;3.65;;;19.30;97.00;;;;;;5032563;28;19909;-76
2021/08/07 08:13:48;;;;;;;;;;;19.20;96.90;;;;;;5033041;28;20124;-75
2021/08/07 08:16:13;;;;;;;6.85;3.63;;;19.20;96.90;;;;;;5032798;28;19920;-76
2021/08/07 08:18:39;;;;;;;;;;;19.20;97.10;;;;;;5034688;28;20026;-76
2021/08/07 08:21:05;;;;;;;9.43;3.70;;;19.50;97.60;;;;;;5034115;28;19963;-76
2021/08/07 08:23:31;;;;;;;8.13;3.40;;;20.10;97.20;;;;;;5033924;28;20026;-77
2021/08/07 08:25:56;;;;;;;;;;;20.40;96.30;;;;;;5034410;28;20034;-75
2021/08/07 08:28:23;;;;;;;8.45;2.90;;;20.80;96.30;;;;;;5033841;28;20020;-77
2021/08/07 08:30:49;;;;;;;7.47;2.92;;;21.20;95.30;;;;;;5033951;28;20029;-76
2021/08/07 08:33:14;;;;;;;;;;;21.20;94.30;;;;;;5034217;28;20104;-77
2021/08/07 08:35:42;;;;;;;9.27;3.30;;;21.20;94.10;;;;;;5032356;28;19956;-76
2021/08/07 08:38:08;;;;;;;8.68;3.50;;;21.10;93.90;;;;;;5033788;28;20024;-77
2021/08/07 08:40:33;;;;;;;;;;;21.10;93.80;;;;;;5034069;28;20029;-76
2021/08/07 08:42:59;;;;;;;8.30;3.47;;;21.10;93.60;;;;;;5033543;28;19909;-77
2021/08/07 08:45:25;;;;;;;;;;;21.00;93.30;;;;;;5034081;28;20376;-77
2021/08/07 08:47:51;;;;;;;7.93;3.22;;;20.90;93.30;;;;;;5033346;28;19913;-76
2021/08/07 08:50:22;;;;;;;11.15;3.28;;;21.10;93.80;;;;;;5033394;28;20029;-77
2021/08/07 08:52:49;;;;;;;7.43;3.45;;;21.40;92.70;;;;;;5030903;28;20032;-76
2021/08/07 08:55:15;;;;;;;6.50;3.22;;;21.40;92.20;;;;;;5033304;28;20153;-76
2021/08/07 08:57:42;;;;;;;8.48;3.40;;;21.40;92.40;;;;;;5032943;28;20036;-76
2021/08/07 09:00:09;;;;;;;11.38;4.05;;;21.30;91.90;;;;;;5032986;28;20108;-76
2021/08/07 09:02:35;;;;;;;11.18;3.53;;;21.40;91.80;;;;;;5031618;28;20034;-76
2021/08/07 09:05:01;;;;;;;8.52;3.03;;;21.40;91.60;;;;;;5033398;28;20056;-76
2021/08/07 09:07:27;;;;;;;;;;;21.40;91.20;;;;;;5034232;28;20489;-77
2021/08/07 09:09:57;;;;;;;6.60;2.97;;;21.30;91.20;;;;;;5034256;28;20463;-76
2021/08/07 09:12:46;;;;;;;8.30;2.83;;;21.10;91.10;;;;;;5034416;28;20025;-76
2021/08/07 09:15:30;;;;;;;9.63;3.08;;;21.10;91.20;;;;;;5033343;28;20068;-77
2021/08/07 09:18:13;;;;;;;9.02;3.00;;;21.00;91.20;;;;;;5034263;28;20034;-75
2021/08/07 09:20:40;;;;;;;9.05;2.47;;;20.90;91.10;;;;;;5043453;28;20092;-76
2021/08/07 09:23:07;;;;;;;6.35;2.85;;;20.70;91.00;;;;;;5052656;28;20613;-75
2021/08/07 09:25:40;;;;;;;8.38;3.08;;;20.50;91.20;;;;;;5045452;28;20040;-76
2021/08/07 09:28:09;;;;;;;8.70;3.17;;;20.50;91.40;;;;;;5042594;28;20021;-76
2021/08/07 09:30:40;;;;;;;7.07;2.25;;;20.60;91.30;;;;;;5043645;28;20482;-76
2021/08/07 09:33:35;;;;;;;6.80;2.47;;;20.60;91.20;;;;;;5039648;28;20029;-75
2021/08/07 09:36:01;;;;;;;7.38;2.50;;;20.60;91.10;;;;;;5033608;28;20037;-76
2021/08/07 09:38:33;;;;;;;;;;;20.60;91.10;;;;;;5033451;28;20029;-76
2021/08/07 09:41:04;;;;;;;4.13;1.52;;;20.60;91.10;;;;;;5046556;28;19920;-76
2021/08/07 09:43:35;;;;;;;6.43;2.08;;;20.40;91.10;;;;;;5044206;28;20599;-76
2021/08/07 09:46:09;;;;;;;7.85;2.40;;;20.40;91.20;;;;;;5045325;28;20047;-76
2021/08/07 09:48:44;;;;;;;4.70;2.00;;;20.20;91.30;;;;;;5047021;28;20021;-76
2021/08/07 09:51:26;;;;;;;5.18;1.77;;;20.10;91.40;;;;;;5040717;28;20021;-75
2021/08/07 09:54:19;;;;;;;5.90;2.22;;;19.90;91.70;;;;;;5035090;28;20603;-75
2021/08/07 09:56:51;;;;;;;7.65;2.72;;;19.60;92.00;;;;;;5041099;28;20151;-76
2021/08/07 09:59:18;;;;;;;6.45;2.65;;;19.30;92.20;;;;;;5039831;28;20050;-75
2021/08/07 10:01:45;;;;;;;8.63;2.72;;;19.00;92.60;;;;;;5033436;28;20036;-77
2021/08/07 10:04:12;;;;;;;6.70;2.50;;;18.80;93.10;;;;;;5033403;28;20037;-76
2021/08/07 10:06:39;;;;;;;7.28;2.30;;;18.50;93.50;;;;;;5031963;28;20357;-75
2021/08/07 10:09:06;;;;;;;7.25;3.03;;;18.20;93.90;;;;;;5033855;28;20025;-76
2021/08/07 10:11:34;;;;;;;8.02;2.83;;;18.00;94.50;;;;;;5032144;28;20053;-76
2021/08/07 10:14:02;;;;;;;9.00;3.00;;;17.70;95.00;;;;;;5033348;28;20083;-75
2021/08/07 10:16:30;;;;;;;9.30;2.70;;;17.60;95.50;;;;;;5033114;28;20036;-76
2021/08/07 10:18:56;;;;;;;9.25;3.10;;;17.40;95.90;;;;;;5033211;28;20044;-75
2021/08/07 10:21:22;;;;;;;8.23;2.75;;;17.40;96.30;;;;;;5032286;28;20026;-75
2021/08/07 10:23:50;;;;;;;;;;;17.20;96.60;;;;;;5033467;28;20044;-75
2021/08/07 10:26:19;;;;;;;9.27;2.58;;;17.10;96.80;;;;;;5032891;28;20363;-76
2021/08/07 10:28:52;;;;;;;4.60;2.10;;;17.00;97.00;;;;;;5032668;28;20032;-77
2021/08/07 10:31:23;;;;;;;5.72;2.20;;;17.00;97.50;;;;;;5032956;28;20025;-77
2021/08/07 10:33:52;;;;;;;8.30;2.92;;;16.90;97.70;;;;;;5032548;28;20117;-79
2021/08/07 10:36:19;;;;;;;7.72;2.58;;;16.80;97.90;;;;;;5033025;28;20028;-77
2021/08/07 10:38:49;;;;;;;5.93;2.70;;;16.70;98.20;;;;;;5032968;28;20189;-76
2021/08/07 10:41:15;;;;;;;7.63;2.80;;;16.70;98.50;;;;;;5031741;28;20472;-78
2021/08/07 10:43:48;;;;;;;6.93;3.05;;;16.70;98.70;;;;;;5032969;28;20052;-76
2021/08/07 10:46:16;;;;;;;4.95;1.95;;;16.70;98.90;;;;;;5032882;28;20108;-77
2021/08/07 10:48:45;;;;;;;4.80;2.28;;;16.70;99.00;;;;;;5032867;28;20105;-73
2021/08/07 10:51:22;;;;;;;5.60;2.38;;;16.70;99.10;;;;;;5032563;28;20346;-75
2021/08/07 10:53:53;;;;;;;5.97;2.60;;;16.70;99.30;;;;;;5031160;28;20027;-73
2021/08/07 10:56:31;;;;;;;5.88;2.10;;;16.70;99.40;;;;;;5031083;28;20108;-74
2021/08/07 10:59:09;;;;;;;5.63;2.30;;;16.70;99.60;;;;;;5032717;28;20081;-74
2021/08/07 11:01:36;;;;;;;5.25;2.22;;;16.70;99.60;;;;;;5032499;28;20018;-75
2021/08/07 11:04:01;;;;;;;;;;;16.70;99.70;;;;;;5032053;28;20026;-74
2021/08/07 11:06:42;;;;;;;13.07;4.93;;;16.80;99.80;;;;;;5041585;28;19963;-75
2021/08/07 11:09:31;;;;;;;11.48;4.22;;;16.70;99.70;;;;;;5038895;28;20036;-73
2021/08/07 11:12:06;;;;;;;8.88;2.63;;;16.80;99.70;;;;;;5039572;28;20055;-74
2021/08/07 11:14:35;;;;;;;4.78;1.73;;;16.80;99.80;;;;;;5039995;28;20079;-74
2021/08/07 11:17:20;;;;;;;7.47;3.67;;;16.80;99.80;;;;;;5040310;28;20025;-74
2021/08/07 11:20:04;;;;;;;7.00;2.40;;;16.90;99.80;;;;;;5036208;28;20037;-74
2021/08/07 11:22:32;;;;;;;9.95;3.05;;;16.90;99.80;;;;;;5049977;28;20051;-75
2021/08/07 11:25:10;;;;;;;10.00;3.75;;;16.90;99.90;;;;;;5052102;28;20044;-74
2021/08/07 11:27:49;;;;;;;7.65;2.78;;;16.90;99.90;;;;;;5052077;28;20033;-74
2021/08/07 11:30:24;;;;;;;11.30;2.88;;;16.90;99.90;;;;;;5051958;28;20064;-73
2021/08/07 11:32:56;;;;;;;6.80;2.47;;;17.00;99.90;;;;;;5052473;28;20372;-75
2021/08/07 11:35:35;;;;;;;7.57;2.63;;;17.00;99.90;;;;;;5052171;28;20029;-75
2021/08/07 11:38:10;;;;;;;7.38;2.75;;;17.00;99.90;;;;;;5051850;28;20029;-74
2021/08/07 11:41:08;;;;;;;9.90;2.83;;;17.00;99.90;;;;;;5050946;28;20360;-76
2021/08/07 11:43:36;;;;;;;8.88;2.97;;;17.00;99.90;;;;;;5052068;28;20021;-73
2021/08/07 11:46:13;;;;;;;10.90;3.08;;;17.00;99.90;;;;;;5052036;28;20025;-75
2021/08/07 11:48:43;;;;;;;8.27;3.35;;;17.00;99.90;;;;;;5051221;28;20711;-76
2021/08/07 11:51:11;;;;;;;8.07;2.28;;;16.90;99.90;;;;;;5052139;28;20029;-76
2021/08/07 11:53:43;;;;;;;7.88;3.03;;;17.00;99.90;;;;;;5052035;28;20025;-76
2021/08/07 11:56:13;;;;;;;10.95;3.13;;;17.00;99.90;;;;;;5052226;28;20116;-75
2021/08/07 11:58:43;;;;;;;22.45;10.57;;;17.10;99.90;;;;;;5052195;28;20029;-75
2021/08/07 12:01:09;;;;;;;9.95;2.92;;;17.10;99.90;;;;;;5050869;28;20021;-78
2021/08/07 12:03:49;;;;;;;7.15;2.38;;;17.20;99.90;;;;;;5050731;28;20041;-75
2021/08/07 12:06:21;;;;;;;10.35;3.15;;;17.20;99.90;;;;;;5051761;28;20033;-77
2021/08/07 12:08:47;;;;;;;7.20;2.42;;;17.20;99.90;;;;;;5051031;28;20685;-75
2021/08/07 12:11:16;;;;;;;9.50;4.40;;;17.30;99.90;;;;;;5051074;28;20111;-75
2021/08/07 12:14:02;;;;;;;10.98;4.15;;;17.40;99.90;;;;;;5051941;28;20025;-76
2021/08/07 12:16:36;;;;;;;8.07;2.70;;;17.50;99.90;;;;;;5050016;28;20037;-75
2021/08/07 12:19:16;;;;;;;6.30;2.78;;;17.60;99.90;;;;;;5051761;28;20107;-76
2021/08/07 12:21:42;;;;;;;8.98;2.50;;;17.60;99.90;;;;;;5047089;28;20021;-77
2021/08/07 12:24:11;;;;;;;6.38;2.72;;;17.70;99.90;;;;;;5031947;28;20021;-77
2021/08/07 12:26:56;;;;;;;6.75;2.30;;;17.70;99.90;;;;;;5033302;28;20514;-77
2021/08/07 12:29:25;;;;;;;9.15;2.38;;;17.80;99.90;;;;;;5035820;28;20029;-77
2021/08/07 12:31:55;;;;;;;6.03;2.70;;;17.90;99.90;;;;;;5034253;28;20049;-77
2021/08/07 12:34:32;;;;;;;6.57;2.22;;;18.00;99.90;;;;;;5034283;28;20506;-76
2021/08/07 12:37:07;;;;;;;4.05;1.88;;;18.10;99.90;;;;;;5034902;28;20059;-77
2021/08/07 12:39:53;;;;;;;4.72;1.60;;;18.20;99.90;;;;;;5035514;28;20028;-76
2021/08/07 12:42:22;;;;;;;5.93;1.90;;;18.30;99.90;;;;;;5035009;28;20461;-76
2021/08/07 12:44:59;;;;;;;6.50;2.10;;;18.30;99.50;;;;;;5034917;28;20063;-75
2021/08/07 12:47:33;;;;;;;3.67;1.90;;;18.30;99.60;;;;;;5017501;28;20466;-75
2021/08/07 12:50:20;;;;;;;5.55;2.05;;;18.40;99.90;;;;;;5034714;28;20109;-68
2021/08/07 12:53:00;;;;;;;4.13;1.65;;;18.60;99.60;;;;;;5033555;28;20417;-76
2021/08/07 12:55:30;;;;;;;8.35;3.08;;;18.80;99.20;;;;;;5034949;28;20025;-75